Orbital elements of FENGYUN 1C DEB
| Launched | 9 May 1999 |
| Flight ended | – |
| Launch site | Taiyuan Space Center, PRC |
| Owner | People's Republic of China |
| NORAD ID | 31088 |
| Date fetched |
Epoch osculation |
Inc. [°] |
Ecc. | RA asc node [hr] |
Arg Peri. [°] |
Mean anom [°] |
Mean motion [rev/day] |
Abs. mag |
| Date fetched |
Epoch osculation |
Inc. [°] |
Ecc. | RA asc node [hr] |
Arg Peri. [°] |
Mean anom [°] |
Mean motion [rev/day] |
Abs. mag |
| 2026 May 09 17:57 | 2026 May 04 04:04:55 | 99.3957 | 0.00269 | 13.3681 | 15.7508 | 13.6432 | 14.29864 | – |
| 2026 May 08 17:57 | 2026 May 04 04:04:55 | 99.3957 | 0.00269 | 13.3681 | 15.7508 | 13.6432 | 14.29864 | – |
| 2026 May 07 17:58 | 2026 May 04 04:04:55 | 99.3957 | 0.00269 | 13.3681 | 15.7508 | 13.6432 | 14.29864 | – |
| 2026 May 06 17:57 | 2026 May 04 04:04:55 | 99.3957 | 0.00269 | 13.3681 | 15.7508 | 13.6432 | 14.29864 | – |
| 2026 May 05 17:57 | 2026 May 04 04:04:55 | 99.3957 | 0.00269 | 13.3681 | 15.7508 | 13.6432 | 14.29864 | – |
| 2026 May 04 17:57 | 2026 Apr 30 04:20:51 | 99.3970 | 0.00273 | 13.0814 | 27.9315 | 13.6432 | 14.29864 | – |
| 2026 May 03 17:57 | 2026 Apr 30 04:20:51 | 99.3970 | 0.00273 | 13.0814 | 27.9315 | 13.6432 | 14.29864 | – |
| 2026 May 02 17:57 | 2026 Apr 30 04:20:51 | 99.3970 | 0.00273 | 13.0814 | 27.9315 | 13.6432 | 14.29864 | – |
| 2026 May 01 17:56 | 2026 Apr 30 04:20:51 | 99.3970 | 0.00273 | 13.0814 | 27.9315 | 13.6432 | 14.29864 | – |
| 2026 Apr 30 17:56 | 2026 Apr 30 04:20:51 | 99.3970 | 0.00273 | 13.0814 | 27.9315 | 13.6432 | 14.29864 | – |
| 2026 Apr 29 17:57 | 2026 Apr 24 03:55:20 | 99.3968 | 0.00280 | 12.6486 | 45.3601 | 13.6432 | 14.29864 | – |
| 2026 Apr 28 17:56 | 2026 Apr 24 03:55:20 | 99.3968 | 0.00280 | 12.6486 | 45.3601 | 13.6432 | 14.29864 | – |
| 2026 Apr 27 17:58 | 2026 Apr 24 03:55:20 | 99.3968 | 0.00280 | 12.6486 | 45.3601 | 13.6432 | 14.29864 | – |
| 2026 Apr 26 17:58 | 2026 Apr 24 03:55:20 | 99.3968 | 0.00280 | 12.6486 | 45.3601 | 13.6432 | 14.29864 | – |
| 2026 Apr 25 17:58 | 2026 Apr 24 03:55:20 | 99.3968 | 0.00280 | 12.6486 | 45.3601 | 13.6432 | 14.29864 | – |
| 2026 Apr 24 17:59 | 2026 Apr 24 03:55:20 | 99.3968 | 0.00280 | 12.6486 | 45.3601 | 13.6432 | 14.29864 | – |
| 2026 Apr 23 17:57 | 2026 Apr 17 03:58:12 | 99.3969 | 0.00287 | 12.1454 | 65.3414 | 13.6432 | 14.29864 | – |
| 2026 Apr 22 17:57 | 2026 Apr 17 03:58:12 | 99.3969 | 0.00287 | 12.1454 | 65.3414 | 13.6432 | 14.29864 | – |
| 2026 Apr 21 17:57 | 2026 Apr 17 03:58:12 | 99.3969 | 0.00287 | 12.1454 | 65.3414 | 13.6432 | 14.29864 | – |
| 2026 Apr 20 17:57 | 2026 Apr 17 03:58:12 | 99.3969 | 0.00287 | 12.1454 | 65.3414 | 13.6432 | 14.29864 | – |
| 2026 Apr 19 17:58 | 2026 Apr 17 03:58:12 | 99.3969 | 0.00287 | 12.1454 | 65.3414 | 13.6432 | 14.29864 | – |
| 2026 Apr 18 17:56 | 2026 Apr 12 17:02:41 | 99.3972 | 0.00292 | 11.8251 | 77.8168 | 13.6432 | 14.29864 | – |
| 2026 Apr 16 17:57 | 2026 Apr 12 17:02:41 | 99.3972 | 0.00292 | 11.8251 | 77.8168 | 13.6432 | 14.29864 | – |
| 2026 Apr 14 17:57 | 2026 Apr 12 17:02:41 | 99.3972 | 0.00292 | 11.8251 | 77.8168 | 13.6432 | 14.29864 | – |
| 2026 Apr 13 17:57 | 2026 Apr 12 17:02:41 | 99.3972 | 0.00292 | 11.8251 | 77.8168 | 13.6432 | 14.29864 | – |
| 2026 Apr 12 17:57 | 2026 Apr 07 03:47:53 | 99.3972 | 0.00298 | 11.4259 | 93.1385 | 13.6432 | 14.29864 | – |